sensor_id;sensor_type;location;lat;lon;timestamp;P1;durP1;ratioP1;P2;durP2;ratioP2
79076;SDS011;68477;42.698;23.342;2024-01-15T00:01:16;202.30;;;113.43;;
79076;SDS011;68477;42.698;23.342;2024-01-15T00:03:42;203.10;;;113.40;;
79076;SDS011;68477;42.698;23.342;2024-01-15T00:06:07;201.60;;;105.45;;
79076;SDS011;68477;42.698;23.342;2024-01-15T00:08:33;192.40;;;99.82;;
79076;SDS011;68477;42.698;23.342;2024-01-15T00:10:59;176.20;;;94.60;;
79076;SDS011;68477;42.698;23.342;2024-01-15T00:13:24;166.63;;;88.65;;
79076;SDS011;68477;42.698;23.342;2024-01-15T00:15:50;170.20;;;91.38;;
79076;SDS011;68477;42.698;23.342;2024-01-15T00:18:15;168.73;;;88.25;;
79076;SDS011;68477;42.698;23.342;2024-01-15T00:20:41;167.68;;;89.90;;
79076;SDS011;68477;42.698;23.342;2024-01-15T00:23:06;175.25;;;94.50;;
79076;SDS011;68477;42.698;23.342;2024-01-15T00:25:32;166.20;;;91.18;;
79076;SDS011;68477;42.698;23.342;2024-01-15T00:27:57;166.23;;;90.13;;
79076;SDS011;68477;42.698;23.342;2024-01-15T00:30:23;163.10;;;90.63;;
79076;SDS011;68477;42.698;23.342;2024-01-15T00:32:48;179.90;;;94.95;;
79076;SDS011;68477;42.698;23.342;2024-01-15T00:35:15;170.10;;;89.97;;
79076;SDS011;68477;42.698;23.342;2024-01-15T00:37:40;173.32;;;94.60;;
79076;SDS011;68477;42.698;23.342;2024-01-15T00:40:06;175.02;;;95.53;;
79076;SDS011;68477;42.698;23.342;2024-01-15T00:42:33;178.68;;;99.68;;
79076;SDS011;68477;42.698;23.342;2024-01-15T00:44:59;181.43;;;98.32;;
79076;SDS011;68477;42.698;23.342;2024-01-15T00:47:24;185.77;;;98.65;;
79076;SDS011;68477;42.698;23.342;2024-01-15T00:49:50;177.50;;;94.75;;
79076;SDS011;68477;42.698;23.342;2024-01-15T00:52:16;177.52;;;99.97;;
79076;SDS011;68477;42.698;23.342;2024-01-15T00:54:41;177.90;;;96.57;;
79076;SDS011;68477;42.698;23.342;2024-01-15T00:57:07;181.55;;;99.03;;
79076;SDS011;68477;42.698;23.342;2024-01-15T00:59:32;180.43;;;99.57;;
79076;SDS011;68477;42.698;23.342;2024-01-15T01:01:58;178.85;;;96.97;;
79076;SDS011;68477;42.698;23.342;2024-01-15T01:04:23;179.05;;;98.30;;
79076;SDS011;68477;42.698;23.342;2024-01-15T01:06:49;180.25;;;96.70;;
79076;SDS011;68477;42.698;23.342;2024-01-15T01:09:14;175.30;;;96.13;;
79076;SDS011;68477;42.698;23.342;2024-01-15T01:11:40;178.18;;;101.18;;
79076;SDS011;68477;42.698;23.342;2024-01-15T01:14:05;180.43;;;102.88;;
79076;SDS011;68477;42.698;23.342;2024-01-15T01:16:31;175.20;;;93.20;;
79076;SDS011;68477;42.698;23.342;2024-01-15T01:19:03;179.82;;;97.43;;
79076;SDS011;68477;42.698;23.342;2024-01-15T01:21:29;179.52;;;98.43;;
79076;SDS011;68477;42.698;23.342;2024-01-15T01:23:55;178.18;;;99.32;;
79076;SDS011;68477;42.698;23.342;2024-01-15T01:26:20;177.32;;;96.55;;
79076;SDS011;68477;42.698;23.342;2024-01-15T01:28:46;172.50;;;94.18;;
79076;SDS011;68477;42.698;23.342;2024-01-15T01:31:11;174.35;;;97.70;;
79076;SDS011;68477;42.698;23.342;2024-01-15T01:33:37;187.50;;;106.43;;
79076;SDS011;68477;42.698;23.342;2024-01-15T01:36:08;184.55;;;98.63;;
79076;SDS011;68477;42.698;23.342;2024-01-15T01:38:37;188.38;;;98.05;;
79076;SDS011;68477;42.698;23.342;2024-01-15T01:41:03;184.20;;;98.05;;
79076;SDS011;68477;42.698;23.342;2024-01-15T01:43:29;186.48;;;99.95;;
79076;SDS011;68477;42.698;23.342;2024-01-15T01:45:57;189.18;;;102.20;;
79076;SDS011;68477;42.698;23.342;2024-01-15T01:48:25;187.10;;;101.22;;
79076;SDS011;68477;42.698;23.342;2024-01-15T01:50:55;184.85;;;100.95;;
79076;SDS011;68477;42.698;23.342;2024-01-15T01:53:23;186.63;;;98.53;;
79076;SDS011;68477;42.698;23.342;2024-01-15T01:55:49;194.38;;;103.32;;
79076;SDS011;68477;42.698;23.342;2024-01-15T01:58:16;177.32;;;99.45;;
79076;SDS011;68477;42.698;23.342;2024-01-15T02:00:42;157.48;;;85.00;;
79076;SDS011;68477;42.698;23.342;2024-01-15T02:03:08;172.05;;;99.72;;
79076;SDS011;68477;42.698;23.342;2024-01-15T02:05:34;183.75;;;97.97;;
79076;SDS011;68477;42.698;23.342;2024-01-15T02:08:01;168.80;;;90.38;;
79076;SDS011;68477;42.698;23.342;2024-01-15T02:10:26;171.40;;;89.60;;
79076;SDS011;68477;42.698;23.342;2024-01-15T02:12:52;171.80;;;92.75;;
79076;SDS011;68477;42.698;23.342;2024-01-15T02:15:18;169.60;;;92.80;;
79076;SDS011;68477;42.698;23.342;2024-01-15T02:17:56;174.00;;;92.63;;
79076;SDS011;68477;42.698;23.342;2024-01-15T02:20:25;163.77;;;86.57;;
79076;SDS011;68477;42.698;23.342;2024-01-15T02:22:51;168.95;;;87.93;;
79076;SDS011;68477;42.698;23.342;2024-01-15T02:25:17;160.68;;;85.85;;
79076;SDS011;68477;42.698;23.342;2024-01-15T02:27:43;160.90;;;84.88;;
79076;SDS011;68477;42.698;23.342;2024-01-15T02:30:11;154.45;;;86.95;;
79076;SDS011;68477;42.698;23.342;2024-01-15T02:32:37;144.48;;;79.43;;
79076;SDS011;68477;42.698;23.342;2024-01-15T02:35:03;153.05;;;80.32;;
79076;SDS011;68477;42.698;23.342;2024-01-15T02:37:29;156.23;;;84.35;;
79076;SDS011;68477;42.698;23.342;2024-01-15T02:39:55;152.75;;;85.30;;
79076;SDS011;68477;42.698;23.342;2024-01-15T02:42:20;149.93;;;81.82;;
79076;SDS011;68477;42.698;23.342;2024-01-15T02:44:46;160.80;;;85.57;;
79076;SDS011;68477;42.698;23.342;2024-01-15T02:47:11;156.05;;;84.15;;
79076;SDS011;68477;42.698;23.342;2024-01-15T02:49:37;158.35;;;85.13;;
79076;SDS011;68477;42.698;23.342;2024-01-15T02:52:02;160.65;;;85.30;;
79076;SDS011;68477;42.698;23.342;2024-01-15T02:54:28;161.73;;;82.10;;
79076;SDS011;68477;42.698;23.342;2024-01-15T02:56:53;143.73;;;76.20;;
79076;SDS011;68477;42.698;23.342;2024-01-15T02:59:19;148.07;;;81.97;;
79076;SDS011;68477;42.698;23.342;2024-01-15T03:01:44;146.88;;;78.38;;
79076;SDS011;68477;42.698;23.342;2024-01-15T03:04:10;139.85;;;69.07;;
79076;SDS011;68477;42.698;23.342;2024-01-15T03:06:35;121.15;;;62.88;;
79076;SDS011;68477;42.698;23.342;2024-01-15T03:09:01;143.25;;;73.72;;
79076;SDS011;68477;42.698;23.342;2024-01-15T03:11:26;137.77;;;71.35;;
79076;SDS011;68477;42.698;23.342;2024-01-15T03:13:52;118.70;;;63.55;;
79076;SDS011;68477;42.698;23.342;2024-01-15T03:16:17;128.32;;;64.85;;
79076;SDS011;68477;42.698;23.342;2024-01-15T03:18:45;125.32;;;66.53;;
79076;SDS011;68477;42.698;23.342;2024-01-15T03:21:10;113.95;;;62.65;;
79076;SDS011;68477;42.698;23.342;2024-01-15T03:23:35;113.95;;;59.00;;
79076;SDS011;68477;42.698;23.342;2024-01-15T03:26:01;118.93;;;59.17;;
79076;SDS011;68477;42.698;23.342;2024-01-15T03:28:26;107.35;;;56.13;;
79076;SDS011;68477;42.698;23.342;2024-01-15T03:30:52;104.00;;;55.95;;
79076;SDS011;68477;42.698;23.342;2024-01-15T03:33:17;82.75;;;44.50;;
79076;SDS011;68477;42.698;23.342;2024-01-15T03:35:43;74.93;;;37.33;;
79076;SDS011;68477;42.698;23.342;2024-01-15T03:38:08;65.07;;;33.17;;
79076;SDS011;68477;42.698;23.342;2024-01-15T03:40:34;64.28;;;32.95;;
79076;SDS011;68477;42.698;23.342;2024-01-15T03:42:59;61.20;;;32.97;;
79076;SDS011;68477;42.698;23.342;2024-01-15T03:45:25;44.25;;;21.02;;
79076;SDS011;68477;42.698;23.342;2024-01-15T03:47:50;63.30;;;34.65;;
79076;SDS011;68477;42.698;23.342;2024-01-15T03:50:16;66.38;;;34.47;;
79076;SDS011;68477;42.698;23.342;2024-01-15T03:52:42;62.05;;;32.45;;
79076;SDS011;68477;42.698;23.342;2024-01-15T03:55:07;63.90;;;31.63;;
79076;SDS011;68477;42.698;23.342;2024-01-15T03:57:33;62.35;;;33.40;;
79076;SDS011;68477;42.698;23.342;2024-01-15T03:59:58;65.00;;;35.95;;
79076;SDS011;68477;42.698;23.342;2024-01-15T04:02:24;65.15;;;33.78;;
79076;SDS011;68477;42.698;23.342;2024-01-15T04:04:49;64.97;;;33.63;;
79076;SDS011;68477;42.698;23.342;2024-01-15T04:07:15;62.00;;;33.30;;
79076;SDS011;68477;42.698;23.342;2024-01-15T04:09:40;64.32;;;34.65;;
79076;SDS011;68477;42.698;23.342;2024-01-15T04:12:06;84.22;;;44.78;;
79076;SDS011;68477;42.698;23.342;2024-01-15T04:14:31;75.35;;;41.80;;
79076;SDS011;68477;42.698;23.342;2024-01-15T04:16:57;78.20;;;41.80;;
79076;SDS011;68477;42.698;23.342;2024-01-15T04:19:22;81.43;;;43.13;;
79076;SDS011;68477;42.698;23.342;2024-01-15T04:21:48;71.70;;;40.30;;
79076;SDS011;68477;42.698;23.342;2024-01-15T04:24:13;73.40;;;38.45;;
79076;SDS011;68477;42.698;23.342;2024-01-15T04:26:39;66.85;;;36.83;;
79076;SDS011;68477;42.698;23.342;2024-01-15T04:29:05;72.05;;;40.03;;
79076;SDS011;68477;42.698;23.342;2024-01-15T04:31:30;89.30;;;43.97;;
79076;SDS011;68477;42.698;23.342;2024-01-15T04:33:55;80.32;;;42.63;;
79076;SDS011;68477;42.698;23.342;2024-01-15T04:36:21;81.93;;;43.75;;
79076;SDS011;68477;42.698;23.342;2024-01-15T04:38:47;78.75;;;43.47;;
79076;SDS011;68477;42.698;23.342;2024-01-15T04:41:13;81.80;;;44.15;;
79076;SDS011;68477;42.698;23.342;2024-01-15T04:43:39;79.63;;;42.38;;
79076;SDS011;68477;42.698;23.342;2024-01-15T04:46:07;80.35;;;44.10;;
79076;SDS011;68477;42.698;23.342;2024-01-15T04:48:33;76.72;;;44.90;;
79076;SDS011;68477;42.698;23.342;2024-01-15T04:50:59;77.38;;;42.75;;
79076;SDS011;68477;42.698;23.342;2024-01-15T04:53:25;75.70;;;43.72;;
79076;SDS011;68477;42.698;23.342;2024-01-15T04:55:50;78.95;;;43.78;;
79076;SDS011;68477;42.698;23.342;2024-01-15T04:58:16;75.40;;;41.80;;
79076;SDS011;68477;42.698;23.342;2024-01-15T05:00:41;75.90;;;42.50;;
79076;SDS011;68477;42.698;23.342;2024-01-15T05:03:07;78.90;;;44.00;;
79076;SDS011;68477;42.698;23.342;2024-01-15T05:05:32;81.43;;;43.95;;
79076;SDS011;68477;42.698;23.342;2024-01-15T05:07:58;76.20;;;44.25;;
79076;SDS011;68477;42.698;23.342;2024-01-15T05:10:23;83.03;;;44.67;;
79076;SDS011;68477;42.698;23.342;2024-01-15T05:12:49;80.40;;;42.88;;
79076;SDS011;68477;42.698;23.342;2024-01-15T05:15:14;77.55;;;42.10;;
79076;SDS011;68477;42.698;23.342;2024-01-15T05:17:40;80.65;;;47.97;;
79076;SDS011;68477;42.698;23.342;2024-01-15T05:20:05;79.10;;;43.30;;
79076;SDS011;68477;42.698;23.342;2024-01-15T05:22:32;81.20;;;45.33;;
79076;SDS011;68477;42.698;23.342;2024-01-15T05:24:57;78.63;;;44.17;;
79076;SDS011;68477;42.698;23.342;2024-01-15T05:27:23;78.18;;;42.80;;
79076;SDS011;68477;42.698;23.342;2024-01-15T05:29:49;83.15;;;41.78;;
79076;SDS011;68477;42.698;23.342;2024-01-15T05:32:14;75.95;;;41.58;;
79076;SDS011;68477;42.698;23.342;2024-01-15T05:34:40;75.72;;;38.05;;
79076;SDS011;68477;42.698;23.342;2024-01-15T05:37:05;74.97;;;42.38;;
79076;SDS011;68477;42.698;23.342;2024-01-15T05:39:31;71.75;;;39.70;;
79076;SDS011;68477;42.698;23.342;2024-01-15T05:41:58;69.43;;;40.13;;
79076;SDS011;68477;42.698;23.342;2024-01-15T05:44:24;44.28;;;21.85;;
79076;SDS011;68477;42.698;23.342;2024-01-15T05:46:49;72.07;;;39.20;;
79076;SDS011;68477;42.698;23.342;2024-01-15T05:49:15;72.28;;;37.40;;
79076;SDS011;68477;42.698;23.342;2024-01-15T05:51:40;73.22;;;39.13;;
79076;SDS011;68477;42.698;23.342;2024-01-15T05:54:06;82.88;;;44.72;;
79076;SDS011;68477;42.698;23.342;2024-01-15T05:56:31;77.03;;;41.67;;
79076;SDS011;68477;42.698;23.342;2024-01-15T05:58:57;77.97;;;41.72;;
79076;SDS011;68477;42.698;23.342;2024-01-15T06:01:23;83.13;;;45.15;;
79076;SDS011;68477;42.698;23.342;2024-01-15T06:03:48;81.40;;;47.00;;
79076;SDS011;68477;42.698;23.342;2024-01-15T06:06:14;79.38;;;43.20;;
79076;SDS011;68477;42.698;23.342;2024-01-15T06:08:39;95.25;;;48.45;;
79076;SDS011;68477;42.698;23.342;2024-01-15T06:11:05;88.95;;;46.88;;
79076;SDS011;68477;42.698;23.342;2024-01-15T06:13:31;85.93;;;47.97;;
79076;SDS011;68477;42.698;23.342;2024-01-15T06:15:57;83.75;;;43.63;;
79076;SDS011;68477;42.698;23.342;2024-01-15T06:18:22;86.45;;;46.75;;
79076;SDS011;68477;42.698;23.342;2024-01-15T06:20:48;89.80;;;51.00;;
79076;SDS011;68477;42.698;23.342;2024-01-15T06:23:14;62.83;;;32.33;;
79076;SDS011;68477;42.698;23.342;2024-01-15T06:25:39;53.28;;;25.63;;
79076;SDS011;68477;42.698;23.342;2024-01-15T06:28:05;34.35;;;18.48;;
79076;SDS011;68477;42.698;23.342;2024-01-15T06:30:30;49.55;;;24.02;;
79076;SDS011;68477;42.698;23.342;2024-01-15T06:32:56;54.55;;;26.20;;
79076;SDS011;68477;42.698;23.342;2024-01-15T06:35:22;60.60;;;28.33;;
79076;SDS011;68477;42.698;23.342;2024-01-15T06:37:47;66.68;;;28.90;;
79076;SDS011;68477;42.698;23.342;2024-01-15T06:40:13;62.42;;;26.50;;
79076;SDS011;68477;42.698;23.342;2024-01-15T06:42:40;58.13;;;28.85;;
79076;SDS011;68477;42.698;23.342;2024-01-15T06:45:06;57.15;;;32.17;;
79076;SDS011;68477;42.698;23.342;2024-01-15T06:47:32;60.63;;;33.92;;
79076;SDS011;68477;42.698;23.342;2024-01-15T06:49:57;67.30;;;32.63;;
79076;SDS011;68477;42.698;23.342;2024-01-15T06:52:24;76.03;;;42.63;;
79076;SDS011;68477;42.698;23.342;2024-01-15T06:54:50;106.13;;;47.35;;
79076;SDS011;68477;42.698;23.342;2024-01-15T06:57:16;84.90;;;43.05;;
79076;SDS011;68477;42.698;23.342;2024-01-15T06:59:41;122.07;;;55.90;;
79076;SDS011;68477;42.698;23.342;2024-01-15T07:02:07;97.15;;;47.97;;
79076;SDS011;68477;42.698;23.342;2024-01-15T07:04:32;91.18;;;50.45;;
79076;SDS011;68477;42.698;23.342;2024-01-15T07:06:59;85.60;;;43.55;;
79076;SDS011;68477;42.698;23.342;2024-01-15T07:09:25;88.15;;;41.38;;
79076;SDS011;68477;42.698;23.342;2024-01-15T07:11:51;100.68;;;44.92;;
79076;SDS011;68477;42.698;23.342;2024-01-15T07:14:17;78.13;;;39.85;;
79076;SDS011;68477;42.698;23.342;2024-01-15T07:16:42;89.72;;;44.65;;
79076;SDS011;68477;42.698;23.342;2024-01-15T07:19:08;86.13;;;42.97;;
79076;SDS011;68477;42.698;23.342;2024-01-15T07:21:33;99.65;;;46.72;;
79076;SDS011;68477;42.698;23.342;2024-01-15T07:23:59;82.68;;;42.63;;
79076;SDS011;68477;42.698;23.342;2024-01-15T07:26:24;87.95;;;43.15;;
79076;SDS011;68477;42.698;23.342;2024-01-15T07:28:51;89.97;;;45.78;;
79076;SDS011;68477;42.698;23.342;2024-01-15T07:31:17;84.28;;;42.60;;
79076;SDS011;68477;42.698;23.342;2024-01-15T07:33:42;37.17;;;22.80;;
79076;SDS011;68477;42.698;23.342;2024-01-15T07:36:08;95.70;;;46.33;;
79076;SDS011;68477;42.698;23.342;2024-01-15T07:38:33;102.82;;;51.15;;
79076;SDS011;68477;42.698;23.342;2024-01-15T07:40:59;98.47;;;47.33;;
79076;SDS011;68477;42.698;23.342;2024-01-15T07:43:25;91.72;;;48.67;;
79076;SDS011;68477;42.698;23.342;2024-01-15T07:45:52;87.55;;;44.63;;
79076;SDS011;68477;42.698;23.342;2024-01-15T07:48:18;88.65;;;48.28;;
79076;SDS011;68477;42.698;23.342;2024-01-15T07:50:43;96.28;;;49.55;;
79076;SDS011;68477;42.698;23.342;2024-01-15T07:53:09;107.47;;;50.67;;
79076;SDS011;68477;42.698;23.342;2024-01-15T07:55:35;100.55;;;48.25;;
79076;SDS011;68477;42.698;23.342;2024-01-15T07:58:00;84.57;;;42.33;;
79076;SDS011;68477;42.698;23.342;2024-01-15T08:00:27;104.80;;;47.65;;
79076;SDS011;68477;42.698;23.342;2024-01-15T08:02:53;98.63;;;47.40;;
79076;SDS011;68477;42.698;23.342;2024-01-15T08:05:19;91.43;;;42.65;;
79076;SDS011;68477;42.698;23.342;2024-01-15T08:07:45;89.75;;;47.38;;
79076;SDS011;68477;42.698;23.342;2024-01-15T08:10:11;96.32;;;45.95;;
79076;SDS011;68477;42.698;23.342;2024-01-15T08:12:39;102.63;;;46.67;;
79076;SDS011;68477;42.698;23.342;2024-01-15T08:15:04;101.82;;;52.45;;
79076;SDS011;68477;42.698;23.342;2024-01-15T08:17:30;97.20;;;47.88;;
79076;SDS011;68477;42.698;23.342;2024-01-15T08:19:57;90.80;;;48.20;;
79076;SDS011;68477;42.698;23.342;2024-01-15T08:22:23;102.97;;;50.30;;
79076;SDS011;68477;42.698;23.342;2024-01-15T08:24:48;103.07;;;55.97;;
79076;SDS011;68477;42.698;23.342;2024-01-15T08:27:14;97.20;;;50.45;;
79076;SDS011;68477;42.698;23.342;2024-01-15T08:29:39;94.10;;;47.08;;
79076;SDS011;68477;42.698;23.342;2024-01-15T08:32:05;109.97;;;54.63;;
79076;SDS011;68477;42.698;23.342;2024-01-15T08:34:30;95.32;;;48.60;;
79076;SDS011;68477;42.698;23.342;2024-01-15T08:36:56;100.15;;;48.85;;
79076;SDS011;68477;42.698;23.342;2024-01-15T08:39:22;97.72;;;45.25;;
79076;SDS011;68477;42.698;23.342;2024-01-15T08:41:47;114.05;;;58.85;;
79076;SDS011;68477;42.698;23.342;2024-01-15T08:44:13;114.93;;;55.30;;
79076;SDS011;68477;42.698;23.342;2024-01-15T08:46:38;105.40;;;53.08;;
79076;SDS011;68477;42.698;23.342;2024-01-15T08:49:05;100.75;;;47.35;;
79076;SDS011;68477;42.698;23.342;2024-01-15T08:51:31;97.85;;;47.95;;
79076;SDS011;68477;42.698;23.342;2024-01-15T08:53:56;95.13;;;45.95;;
79076;SDS011;68477;42.698;23.342;2024-01-15T08:56:22;105.28;;;52.83;;
79076;SDS011;68477;42.698;23.342;2024-01-15T08:58:48;92.00;;;48.33;;
79076;SDS011;68477;42.698;23.342;2024-01-15T09:01:13;98.00;;;48.80;;
79076;SDS011;68477;42.698;23.342;2024-01-15T09:03:39;95.22;;;51.00;;
79076;SDS011;68477;42.698;23.342;2024-01-15T09:06:06;102.20;;;48.47;;
79076;SDS011;68477;42.698;23.342;2024-01-15T09:08:32;103.72;;;52.92;;
79076;SDS011;68477;42.698;23.342;2024-01-15T09:10:58;100.20;;;43.13;;
79076;SDS011;68477;42.698;23.342;2024-01-15T09:13:23;92.13;;;41.92;;
79076;SDS011;68477;42.698;23.342;2024-01-15T09:15:49;80.28;;;38.90;;
79076;SDS011;68477;42.698;23.342;2024-01-15T09:18:14;90.22;;;41.80;;
79076;SDS011;68477;42.698;23.342;2024-01-15T09:20:40;78.65;;;35.95;;
79076;SDS011;68477;42.698;23.342;2024-01-15T09:23:05;98.97;;;48.28;;
79076;SDS011;68477;42.698;23.342;2024-01-15T09:25:31;100.95;;;47.45;;
79076;SDS011;68477;42.698;23.342;2024-01-15T09:27:56;114.60;;;58.60;;
79076;SDS011;68477;42.698;23.342;2024-01-15T09:30:24;94.22;;;45.78;;
79076;SDS011;68477;42.698;23.342;2024-01-15T09:32:50;91.65;;;44.55;;
79076;SDS011;68477;42.698;23.342;2024-01-15T09:35:16;104.32;;;51.20;;
79076;SDS011;68477;42.698;23.342;2024-01-15T09:37:41;99.32;;;46.38;;
79076;SDS011;68477;42.698;23.342;2024-01-15T09:40:08;91.07;;;46.75;;
79076;SDS011;68477;42.698;23.342;2024-01-15T09:42:42;95.53;;;47.97;;
79076;SDS011;68477;42.698;23.342;2024-01-15T09:45:08;97.53;;;47.20;;
79076;SDS011;68477;42.698;23.342;2024-01-15T09:47:35;100.18;;;47.22;;
79076;SDS011;68477;42.698;23.342;2024-01-15T09:50:02;97.72;;;46.35;;
79076;SDS011;68477;42.698;23.342;2024-01-15T09:52:29;88.60;;;42.67;;
79076;SDS011;68477;42.698;23.342;2024-01-15T09:54:56;89.53;;;44.60;;
79076;SDS011;68477;42.698;23.342;2024-01-15T09:57:23;86.00;;;42.38;;
79076;SDS011;68477;42.698;23.342;2024-01-15T09:59:49;83.90;;;46.38;;
79076;SDS011;68477;42.698;23.342;2024-01-15T10:02:17;83.25;;;36.63;;
79076;SDS011;68477;42.698;23.342;2024-01-15T10:04:43;81.15;;;42.85;;
79076;SDS011;68477;42.698;23.342;2024-01-15T10:07:09;95.95;;;42.42;;
79076;SDS011;68477;42.698;23.342;2024-01-15T10:09:40;81.57;;;40.83;;
79076;SDS011;68477;42.698;23.342;2024-01-15T10:12:06;87.45;;;42.25;;
79076;SDS011;68477;42.698;23.342;2024-01-15T10:14:32;78.75;;;39.40;;
79076;SDS011;68477;42.698;23.342;2024-01-15T10:16:58;88.38;;;43.30;;
79076;SDS011;68477;42.698;23.342;2024-01-15T10:19:23;79.60;;;39.65;;
79076;SDS011;68477;42.698;23.342;2024-01-15T10:21:49;87.55;;;40.90;;
79076;SDS011;68477;42.698;23.342;2024-01-15T10:24:16;91.57;;;43.05;;
79076;SDS011;68477;42.698;23.342;2024-01-15T10:26:42;82.70;;;38.60;;
79076;SDS011;68477;42.698;23.342;2024-01-15T10:29:08;86.13;;;42.45;;
79076;SDS011;68477;42.698;23.342;2024-01-15T10:31:33;78.90;;;36.95;;
79076;SDS011;68477;42.698;23.342;2024-01-15T10:34:11;78.07;;;36.45;;
79076;SDS011;68477;42.698;23.342;2024-01-15T10:36:39;69.72;;;32.95;;
79076;SDS011;68477;42.698;23.342;2024-01-15T10:39:06;76.95;;;37.08;;
79076;SDS011;68477;42.698;23.342;2024-01-15T10:41:32;82.40;;;36.13;;
79076;SDS011;68477;42.698;23.342;2024-01-15T10:43:58;87.60;;;38.05;;
79076;SDS011;68477;42.698;23.342;2024-01-15T10:46:24;81.78;;;38.95;;
79076;SDS011;68477;42.698;23.342;2024-01-15T10:48:50;66.95;;;32.47;;
79076;SDS011;68477;42.698;23.342;2024-01-15T10:51:16;78.93;;;41.22;;
79076;SDS011;68477;42.698;23.342;2024-01-15T10:53:43;77.40;;;34.45;;
79076;SDS011;68477;42.698;23.342;2024-01-15T10:56:10;74.43;;;35.05;;
79076;SDS011;68477;42.698;23.342;2024-01-15T10:58:39;74.80;;;34.15;;
79076;SDS011;68477;42.698;23.342;2024-01-15T11:01:05;75.45;;;37.53;;
79076;SDS011;68477;42.698;23.342;2024-01-15T11:03:31;69.10;;;32.10;;
79076;SDS011;68477;42.698;23.342;2024-01-15T11:05:57;61.10;;;32.03;;
79076;SDS011;68477;42.698;23.342;2024-01-15T11:08:24;62.88;;;30.13;;
79076;SDS011;68477;42.698;23.342;2024-01-15T11:10:51;67.60;;;30.23;;
79076;SDS011;68477;42.698;23.342;2024-01-15T11:15:58;48.40;;;24.92;;
79076;SDS011;68477;42.698;23.342;2024-01-15T11:18:34;50.85;;;24.80;;
79076;SDS011;68477;42.698;23.342;2024-01-15T11:23:44;42.85;;;19.15;;
79076;SDS011;68477;42.698;23.342;2024-01-15T11:26:27;44.67;;;20.67;;
79076;SDS011;68477;42.698;23.342;2024-01-15T11:29:02;41.85;;;21.83;;
79076;SDS011;68477;42.698;23.342;2024-01-15T11:34:04;40.30;;;21.38;;
79076;SDS011;68477;42.698;23.342;2024-01-15T11:41:56;41.30;;;20.92;;
79076;SDS011;68477;42.698;23.342;2024-01-15T11:44:25;33.65;;;18.25;;
79076;SDS011;68477;42.698;23.342;2024-01-15T11:47:01;40.85;;;19.15;;
79076;SDS011;68477;42.698;23.342;2024-01-15T11:52:21;41.10;;;18.25;;
79076;SDS011;68477;42.698;23.342;2024-01-15T11:54:55;35.25;;;16.52;;
79076;SDS011;68477;42.698;23.342;2024-01-15T11:57:50;30.67;;;16.65;;
79076;SDS011;68477;42.698;23.342;2024-01-15T12:00:19;31.40;;;16.65;;
79076;SDS011;68477;42.698;23.342;2024-01-15T12:02:46;38.42;;;16.77;;
79076;SDS011;68477;42.698;23.342;2024-01-15T12:05:13;34.17;;;17.55;;
79076;SDS011;68477;42.698;23.342;2024-01-15T12:07:40;34.40;;;18.27;;
79076;SDS011;68477;42.698;23.342;2024-01-15T12:15:25;40.45;;;17.15;;
79076;SDS011;68477;42.698;23.342;2024-01-15T12:17:51;30.75;;;17.05;;
79076;SDS011;68477;42.698;23.342;2024-01-15T12:20:18;34.17;;;17.33;;
79076;SDS011;68477;42.698;23.342;2024-01-15T12:22:43;32.08;;;17.35;;
79076;SDS011;68477;42.698;23.342;2024-01-15T12:25:09;39.58;;;17.77;;
79076;SDS011;68477;42.698;23.342;2024-01-15T12:27:35;42.80;;;20.77;;
79076;SDS011;68477;42.698;23.342;2024-01-15T12:30:02;36.65;;;19.15;;
79076;SDS011;68477;42.698;23.342;2024-01-15T12:32:27;45.13;;;21.70;;
79076;SDS011;68477;42.698;23.342;2024-01-15T12:34:54;55.55;;;24.55;;
79076;SDS011;68477;42.698;23.342;2024-01-15T12:37:19;52.67;;;24.35;;
79076;SDS011;68477;42.698;23.342;2024-01-15T12:39:46;43.35;;;21.50;;
79076;SDS011;68477;42.698;23.342;2024-01-15T12:42:16;44.45;;;22.60;;
79076;SDS011;68477;42.698;23.342;2024-01-15T12:44:42;53.17;;;23.70;;
79076;SDS011;68477;42.698;23.342;2024-01-15T12:47:09;47.90;;;22.55;;
79076;SDS011;68477;42.698;23.342;2024-01-15T12:49:38;44.13;;;22.45;;
79076;SDS011;68477;42.698;23.342;2024-01-15T12:52:08;54.38;;;22.20;;
79076;SDS011;68477;42.698;23.342;2024-01-15T12:54:34;48.33;;;22.98;;
79076;SDS011;68477;42.698;23.342;2024-01-15T12:57:00;45.65;;;23.63;;
79076;SDS011;68477;42.698;23.342;2024-01-15T12:59:25;46.55;;;23.52;;
79076;SDS011;68477;42.698;23.342;2024-01-15T13:01:51;42.15;;;22.52;;
79076;SDS011;68477;42.698;23.342;2024-01-15T13:04:23;48.80;;;23.67;;
79076;SDS011;68477;42.698;23.342;2024-01-15T13:06:49;46.10;;;22.42;;
79076;SDS011;68477;42.698;23.342;2024-01-15T13:09:15;47.72;;;23.38;;
79076;SDS011;68477;42.698;23.342;2024-01-15T13:11:42;43.38;;;23.13;;
79076;SDS011;68477;42.698;23.342;2024-01-15T13:14:09;48.40;;;21.58;;
79076;SDS011;68477;42.698;23.342;2024-01-15T13:16:34;44.28;;;23.42;;
79076;SDS011;68477;42.698;23.342;2024-01-15T13:19:00;44.33;;;20.55;;
79076;SDS011;68477;42.698;23.342;2024-01-15T13:21:25;42.03;;;21.75;;
79076;SDS011;68477;42.698;23.342;2024-01-15T13:23:51;53.30;;;22.15;;
79076;SDS011;68477;42.698;23.342;2024-01-15T13:26:16;41.92;;;22.35;;
79076;SDS011;68477;42.698;23.342;2024-01-15T13:28:43;37.67;;;22.67;;
79076;SDS011;68477;42.698;23.342;2024-01-15T13:31:09;45.10;;;20.85;;
79076;SDS011;68477;42.698;23.342;2024-01-15T13:33:34;42.10;;;22.27;;
79076;SDS011;68477;42.698;23.342;2024-01-15T13:36:00;48.63;;;23.70;;
79076;SDS011;68477;42.698;23.342;2024-01-15T13:38:25;44.50;;;22.08;;
79076;SDS011;68477;42.698;23.342;2024-01-15T13:40:52;49.75;;;22.20;;
79076;SDS011;68477;42.698;23.342;2024-01-15T13:43:20;37.67;;;21.23;;
79076;SDS011;68477;42.698;23.342;2024-01-15T13:45:46;39.72;;;20.67;;
79076;SDS011;68477;42.698;23.342;2024-01-15T13:48:11;43.13;;;20.45;;
79076;SDS011;68477;42.698;23.342;2024-01-15T13:50:38;46.05;;;20.83;;
79076;SDS011;68477;42.698;23.342;2024-01-15T13:53:04;42.28;;;20.92;;
79076;SDS011;68477;42.698;23.342;2024-01-15T13:55:30;41.10;;;22.50;;
79076;SDS011;68477;42.698;23.342;2024-01-15T13:57:55;44.80;;;22.10;;
79076;SDS011;68477;42.698;23.342;2024-01-15T14:00:21;43.00;;;20.80;;
79076;SDS011;68477;42.698;23.342;2024-01-15T14:02:48;50.95;;;22.52;;
79076;SDS011;68477;42.698;23.342;2024-01-15T14:05:13;57.28;;;23.63;;
79076;SDS011;68477;42.698;23.342;2024-01-15T14:07:39;39.92;;;20.52;;
79076;SDS011;68477;42.698;23.342;2024-01-15T14:10:05;41.35;;;20.05;;
79076;SDS011;68477;42.698;23.342;2024-01-15T14:12:33;43.22;;;21.58;;
79076;SDS011;68477;42.698;23.342;2024-01-15T14:14:59;39.22;;;19.33;;
79076;SDS011;68477;42.698;23.342;2024-01-15T14:17:27;43.67;;;21.05;;
79076;SDS011;68477;42.698;23.342;2024-01-15T14:19:53;41.75;;;18.65;;